ADDS METAR Data INFO
IDs: Format: Raw Decoded Include TAF

Data at: 2254 UTC 22 Jun 2018

KAJG 222235Z AUTO 28004KT 10SM CLR 25/19 A2967 RMK AO2 LTG DSNT SW THRU N T02460191
KAJG 222215Z AUTO 27008KT 10SM CLR 25/19 A2967 RMK AO2 LTG DSNT N NE AND SW T02470191
KAJG 222155Z AUTO 29009KT 10SM SCT060 SCT070 24/20 A2967 RMK AO2 LTG DSNT SW T02420197
KAJG 222135Z AUTO 26006KT 10SM -RA SCT030 BKN047 BKN060 23/20 A2967 RMK AO2 T02320197
KAJG 222115Z AUTO 29010G14KT 10SM -RA BKN026 BKN034 OVC100 23/20 A2967 RMK AO2 T02280199
KAJG 222055Z AUTO 25008KT 10SM SCT023 BKN029 BKN043 24/20 A2966 RMK AO2 LTG DSNT S T02350201
KAJG 222035Z AUTO 25006KT 10SM SCT023 SCT034 SCT041 24/20 A2967 RMK AO2 LTG DSNT NE AND W T02390201
KAJG 222015Z AUTO 27008KT 10SM VCTS SCT023 25/20 A2967 RMK AO2 LTG DSNT NW THRU NE T02500198
KAJG 221955Z AUTO 27006KT 10SM SCT060 25/19 A2967 RMK AO2 LTG DSNT N T02460192
KAJG 221935Z AUTO 22005KT 10SM SCT023 SCT032 BKN055 24/20 A2967 RMK AO2 T02380198
KAJG 221915Z AUTO 24008KT 7SM SCT021 SCT027 SCT036 22/20 A2968 RMK AO2 LTG DSNT NW T02240199
KAJG 221855Z AUTO 29006KT 10SM SCT029 23/20 A2968 RMK AO2 LTG DSNT NW T02290195
KAJG 221835Z AUTO 31004KT 10SM CLR 22/20 A2968 RMK AO2 T02210197
KAJG 221815Z AUTO 29003KT 10SM SCT050 SCT070 SCT095 22/20 A2968 RMK AO2 T02190196
KAJG 221755Z AUTO 00000KT 10SM RA SCT025 BKN055 OVC110 22/20 A2968 RMK AO2 T02180200 10239 20190
KAJG 221735Z AUTO 26004KT 5SM -RA SCT014 BKN027 OVC039 21/20 A2969 RMK AO2 LTG DSNT N T02090202
KAJG 221715Z AUTO 27003KT 7SM -RA SCT020 BKN028 OVC045 22/20 A2970 RMK AO2 LTG DSNT W T02160197
KAJG 221655Z AUTO 00000KT 7SM RA SCT018 BKN028 OVC045 22/19 A2970 RMK AO2 LTG DSNT NW T02220187
KAJG 221635Z AUTO 09004KT 10SM BKN016 BKN026 BKN055 24/19 A2970 RMK AO2 T02380190
KAJG 221615Z AUTO 12003KT 10SM BKN014 BKN065 23/20 A2970 RMK AO2 T02300195
KAJG 221555Z AUTO 12003KT 10SM SCT012 BKN050 OVC065 22/19 A2970 RMK AO2 T02200189
KAJG 221535Z AUTO 00000KT 10SM SCT010 BKN046 OVC055 22/19 A2970 RMK AO2 T02170192
KAJG 221515Z AUTO 16004KT 10SM BKN010 BKN036 OVC046 21/19 A2970 RMK AO2 T02120188
KAJG 221455Z AUTO 12003KT 10SM BKN010 BKN036 OVC049 21/19 A2970 RMK AO2 T02110189
KAJG 221435Z AUTO 15004KT 10SM SCT010 BKN050 OVC055 21/19 A2971 RMK AO2 T02050188
KAJG 221415Z AUTO 14004KT 10SM SCT008 BKN048 OVC090 20/19 A2971 RMK AO2 T02000186
KAJG 221355Z AUTO 13005KT 10SM SCT006 BKN046 OVC065 20/19 A2971 RMK AO2 T01950190
KAJG 221335Z AUTO 13005KT 10SM -DZ SCT033 SCT049 OVC055 19/19 A2971 RMK AO2 LTG DSNT SE T01920186
KAJG 221315Z AUTO 15007KT 7SM +RA SCT040 BKN055 OVC065 19/18 A2971 RMK AO2 T01910184
KAJG 221255Z AUTO 16003KT 5SM RA SCT045 BKN050 OVC075 19/18 A2971 RMK AO2 LTG DSNT SE T01920183
KAJG 221235Z AUTO 17003KT 10SM SCT045 BKN055 OVC075 19/18 A2971 RMK AO2 T01920183
KAJG 221215Z AUTO 00000KT 10SM SCT033 BKN080 OVC090 19/19 A2971 RMK AO2 T01930187
KAJG 221155Z AUTO 17003KT 10SM SCT050 BKN070 OVC100 20/19 A2971 RMK AO2 T01950190 10196 20180
KAJG 221135Z AUTO 17005KT 7SM -RA SCT050 BKN080 OVC110 19/19 A2971 RMK AO2 T01930190
KAJG 221115Z AUTO 19006KT 10SM BKN055 OVC090 19/19 A2971 RMK AO2 T01920187
KAJG 221055Z AUTO 19004KT 10SM BKN055 OVC095 19/19 A2971 RMK AO2 T01900185
KAJG 221035Z AUTO 00000KT 10SM BKN095 OVC110 19/18 A2970 RMK AO2 T01860182
KAJG 221015Z AUTO 00000KT 10SM SCT090 OVC110 19/18 A2969 RMK AO2 T01850181
KAJG 220955Z AUTO 00000KT 10SM SCT095 OVC110 19/18 A2969 RMK AO2 T01860182
KAJG 220935Z AUTO 00000KT 10SM SCT075 BKN095 BKN120 18/18 A2969 RMK AO2 T01820178
KAJG 220915Z AUTO 00000KT 10SM SCT075 BKN120 18/18 A2969 RMK AO2 T01830180
KAJG 220855Z AUTO 00000KT 10SM SCT120 18/18 A2969 RMK AO2 T01830180
KAJG 220835Z AUTO 00000KT 10SM CLR 18/18 A2968 RMK AO2 T01810176
KAJG 220815Z AUTO 00000KT 10SM CLR 18/18 A2968 RMK AO2 T01830178
KAJG 220755Z AUTO 00000KT 10SM CLR 19/18 A2968 RMK AO2 T01850180
KAJG 220735Z AUTO 00000KT 10SM CLR 18/18 A2968 RMK AO2 T01830180
KAJG 220715Z AUTO 00000KT 10SM CLR 19/18 A2969 RMK AO2 T01850181
KAJG 220655Z AUTO 00000KT 10SM SCT120 19/18 A2969 RMK AO2 T01870183
KAJG 220635Z AUTO 00000KT 10SM CLR 19/19 A2969 RMK AO2 T01890185
KAJG 220615Z AUTO 20003KT 10SM CLR 19/19 A2970 RMK AO2 T01930187
KAJG 220555Z AUTO 00000KT 10SM CLR 20/19 A2970 RMK AO2 T01960190 10262 20195 402880195
KAJG 220535Z AUTO 00000KT 10SM CLR 20/19 A2970 RMK AO2 LTG DSNT NE T01960190
KAJG 220515Z AUTO 21003KT 10SM CLR 20/19 A2971 RMK AO2 T01990190
KAJG 220455Z AUTO 23003KT 10SM CLR 20/19 A2972 RMK AO2 LTG DSNT NE T01980191
KAJG 220435Z AUTO 26003KT 10SM CLR 20/19 A2973 RMK AO2 LTG DSNT NE T01990187
KAJG 220415Z AUTO 25005KT 10SM CLR 20/19 A2973 RMK AO2 T02020186
KAJG 220355Z AUTO 00000KT 10SM CLR 21/18 A2973 RMK AO2 T02110180
KAJG 220335Z AUTO 00000KT 10SM SCT029 SCT075 21/20 A2973 RMK AO2 T02120198
KAJG 220315Z AUTO 25003KT 10SM SCT060 SCT090 22/21 A2973 RMK AO2 T02150206
KAJG 220255Z AUTO 25004KT 10SM BKN060 BKN090 23/20 A2972 RMK AO2 T02250204
KAJG 220235Z AUTO 22005KT 10SM SCT026 SCT035 OVC060 23/20 A2971 RMK AO2 T02280202
KAJG 220215Z AUTO 23007KT 10SM SCT028 BKN035 23/20 A2971 RMK AO2 LTG DSNT N T02330199
KAJG 220155Z AUTO 24006KT 10SM CLR 23/20 A2970 RMK AO2 LTG DSNT NE T02260202
KAJG 220135Z AUTO 21005KT 10SM CLR 24/20 A2968 RMK AO2 LTG DSNT NE T02350204
KAJG 220115Z AUTO 22006KT 10SM SCT120 24/21 A2969 RMK AO2 T02400213
KAJG 220055Z AUTO 23007KT 10SM SCT050 BKN120 25/22 A2969 RMK AO2 T02490216
KAJG 220035Z AUTO 21006KT 10SM SCT020 25/22 A2970 RMK AO2 LTG DSNT NW T02520224
KAJG 220015Z AUTO 22007KT 10SM SCT022 BKN027 BKN033 26/22 A2969 RMK AO2 LTG DSNT NE T02600224
KAJG 212355Z AUTO 21007KT 10SM SCT023 BKN028 BKN035 26/22 A2969 RMK AO2 T02600223 10288 20243
KAJG 212335Z AUTO 23007KT 10SM BKN023 OVC030 26/22 A2968 RMK AO2 T02590216
KAJG 212315Z AUTO 32003KT 10SM BKN023 26/23 A2968 RMK AO2 T02580225
KAJG 212255Z AUTO 00000KT 10SM SCT023 BKN036 BKN070 25/23 A2968 RMK AO2 T02540225
KAJG 212235Z AUTO 32003KT 10SM SCT023 SCT036 BKN090 25/22 A2968 RMK AO2 T02520217
KAJG 212215Z AUTO 21008KT 10SM SCT026 27/23 A2967 RMK AO2 LTG DSNT W T02700225
KAJG 212200Z AUTO 21007KT 10SM VCTS BKN026 BKN037 BKN050 27/23 A2968 RMK AO2 LTG DSNT N NE AND S T02700226
KAJG 212135Z AUTO 20008KT 10SM SCT030 BKN035 BKN041 28/23 A2968 RMK AO2 LTG DSNT N AND NW T02760227
KAJG 212115Z AUTO 25006KT 10SM BKN030 BKN050 BKN065 27/23 A2969 RMK AO2 LTG DSNT S THRU NW T02680232
KAJG 212055Z AUTO 21008KT 10SM SCT032 SCT049 BKN060 28/22 A2969 RMK AO2 LTG DSNT S T02750220
KAJG 212035Z AUTO 21008KT 10SM SCT032 SCT040 SCT050 28/21 A2968 RMK AO2 T02760214
KAJG 212015Z AUTO 21008KT 10SM SCT037 SCT050 28/22 A2968 RMK AO2 T02820218
KAJG 211955Z AUTO 19008KT 180V240 10SM SCT033 SCT055 28/22 A2970 RMK AO2 T02840217
KAJG 211935Z AUTO 21007KT 10SM SCT031 BKN055 28/22 A2971 RMK AO2 T02790219
KAJG 211915Z AUTO 22008G14KT 10SM SCT031 SCT035 SCT047 28/22 A2972 RMK AO2 T02830218
KAJG 211855Z AUTO 21007KT 10SM SCT029 BKN033 BKN039 28/22 A2971 RMK AO2 T02800217
KAJG 211835Z AUTO 23007KT 10SM BKN027 BKN034 BKN044 28/22 A2972 RMK AO2 T02770219
KAJG 211815Z AUTO 21008KT 10SM SCT027 BKN034 BKN044 28/22 A2972 RMK AO2 T02770221
KAJG 211755Z AUTO 20007KT 10SM BKN025 BKN034 BKN046 28/22 A2972 RMK AO2 LTG DSNT W T02750222 10275 20212
KAJG 211735Z AUTO 21009KT 10SM SCT023 BKN030 BKN037 27/22 A2973 RMK AO2 T02690221
KAJG 211720Z AUTO 20009KT 10SM SCT021 SCT030 SCT037 27/22 A2974 RMK AO2 LTG DSNT W T02670222
KAJG 211655Z AUTO 20007KT 10SM SCT019 BKN028 BKN039 27/22 A2975 RMK AO2 T02650223
KAJG 211635Z AUTO 21008KT 10SM SCT016 SCT034 BKN040 25/22 A2976 RMK AO2 T02540222
KAJG 211615Z AUTO 22009KT 10SM BKN014 BKN025 OVC035 25/22 A2977 RMK AO2 T02500221
KAJG 211555Z AUTO 21008KT 10SM BKN012 OVC018 24/22 A2977 RMK AO2 T02430222
KAJG 211535Z AUTO 21007KT 10SM BKN010 OVC016 24/22 A2977 RMK AO2 T02410224
KAJG 211515Z AUTO 20007KT 10SM OVC010 24/22 A2977 RMK AO2 T02350220
KAJG 211455Z AUTO 20007KT 10SM OVC010 23/22 A2978 RMK AO2 T02320220
KAJG 211435Z AUTO 22007KT 10SM BKN008 BKN013 OVC021 23/22 A2978 RMK AO2 T02290222
KAJG 211355Z AUTO 20006KT 10SM SCT008 OVC018 22/21 A2979 RMK AO2 T02180213
KAJG 211335Z AUTO 20006KT 10SM SCT014 BKN023 OVC036 22/21 A2979 RMK AO2 T02170213
KAJG 211315Z AUTO 21007KT 10SM SCT006 BKN014 OVC038 21/21 A2979 RMK AO2 T02140210
KAJG 211255Z AUTO 21006KT 5SM -RA BKN006 BKN012 OVC026 21/21 A2979 RMK AO2 T02120208
KAJG 211235Z AUTO 21007KT 4SM RA BKN006 BKN010 OVC017 22/21 A2979 RMK AO2 T02150210
KAJG 211215Z AUTO 20007KT 3SM -RA BKN006 BKN010 OVC017 22/22 A2979 RMK AO2 T02180215
KAJG 211155Z AUTO 21007KT 10SM -RA BKN006 BKN044 OVC060 22/22 A2979 RMK AO2 7//// T02180215 10235 20217
KAJG 211135Z AUTO 22006KT 7SM -RA BKN006 BKN022 OVC037 22/21 A2979 RMK AO2 T02170213
KAJG 211115Z AUTO 21006KT 4SM RA BKN006 BKN024 OVC036 22/21 A2979 RMK AO2 T02170214
KAJG 211055Z AUTO 21007KT 7SM RA BKN008 BKN019 OVC090 22/22 A2979 RMK AO2 T02180215